Terminal Aerodrome Forecast
Issued by NWS Missoula, MT

Home | Current Version | Previous Version | Text Only | Print | Product List | Glossary On
Versions: 1 2 3 4 5 6 7 8 9 10 11 12 13
000
FTUS45 KMSO 050526
TAFGPI
TAF
KGPI 050526Z 0506/0606 VRB04KT P6SM SCT110
     FM051100 VRB04KT P6SM -SHRA BKN080
     FM051800 17010KT P6SM SCT080
     FM052200 20012G18KT P6SM SCT100=

USA.gov is the U.S. government's official web portal to all federal, state and local government web resources and services.